createdAt,value
2024-02-09T00:01:20.516Z,0.50
2024-02-09T00:03:47.523Z,0.40
2024-02-09T00:06:14.338Z,0.50
2024-02-09T00:08:43.990Z,0.40
2024-02-09T00:11:14.047Z,0.50
2024-02-09T00:13:44.681Z,0.40
2024-02-09T00:16:12.089Z,0.50
2024-02-09T00:18:41.413Z,0.50
2024-02-09T00:21:12.228Z,0.40
2024-02-09T00:23:39.606Z,0.50
2024-02-09T00:26:06.487Z,0.40
2024-02-09T00:28:33.009Z,0.40
2024-02-09T00:30:59.616Z,0.40
2024-02-09T00:33:26.284Z,0.50
2024-02-09T00:35:52.839Z,0.40
2024-02-09T00:38:21.492Z,0.45
2024-02-09T00:40:49.648Z,0.40
2024-02-09T00:43:18.280Z,0.40
2024-02-09T00:45:44.973Z,0.40
2024-02-09T00:48:11.596Z,0.40
2024-02-09T00:50:38.200Z,0.40
2024-02-09T00:53:12.031Z,0.50
2024-02-09T00:55:39.063Z,0.40
2024-02-09T00:58:05.740Z,0.50
2024-02-09T01:00:33.143Z,0.40
2024-02-09T01:03:00.392Z,0.47
2024-02-09T01:05:27.039Z,0.43
2024-02-09T01:07:53.640Z,0.40
2024-02-09T01:10:20.637Z,0.40
2024-02-09T01:13:05.823Z,0.40
2024-02-09T01:15:50.961Z,0.40
2024-02-09T01:18:36.005Z,0.50
2024-02-09T01:21:20.884Z,0.40
2024-02-09T01:24:05.770Z,0.50
2024-02-09T01:26:50.769Z,0.43
2024-02-09T01:29:35.687Z,0.45
2024-02-09T01:32:20.676Z,0.50
2024-02-09T01:35:05.674Z,0.50
2024-02-09T01:37:50.884Z,0.40
2024-02-09T01:40:36.069Z,0.40
2024-02-09T01:43:24.676Z,0.40
2024-02-09T01:46:11.491Z,0.40
2024-02-09T01:48:57.159Z,0.40
2024-02-09T01:51:42.970Z,0.40
2024-02-09T01:54:28.020Z,0.38
2024-02-09T01:57:13.939Z,0.40
2024-02-09T02:00:05.066Z,0.40
2024-02-09T02:02:50.995Z,0.40
2024-02-09T02:05:36.541Z,0.40
2024-02-09T02:08:21.333Z,0.40
2024-02-09T02:11:06.425Z,0.40
2024-02-09T02:13:51.792Z,0.40
2024-02-09T02:16:36.946Z,0.40
2024-02-09T02:19:22.009Z,0.40
2024-02-09T02:22:17.415Z,0.40
2024-02-09T02:25:03.842Z,0.40
2024-02-09T02:27:58.093Z,0.40
2024-02-09T02:30:43.173Z,0.40
2024-02-09T02:33:28.109Z,0.40
2024-02-09T02:36:13.428Z,0.40
2024-02-09T02:38:58.351Z,0.40
2024-02-09T02:41:24.888Z,0.40
2024-02-09T02:43:51.327Z,0.50
2024-02-09T02:46:17.913Z,0.40
2024-02-09T02:49:03.952Z,0.40
2024-02-09T02:51:49.273Z,0.40
2024-02-09T02:54:34.912Z,0.40
2024-02-09T02:57:20.335Z,0.40
2024-02-09T03:00:09.237Z,0.40
2024-02-09T03:02:55.279Z,0.40
2024-02-09T03:05:28.552Z,0.40
2024-02-09T03:08:43.193Z,0.40
2024-02-09T03:10:42.281Z,0.40
2024-02-09T03:13:08.860Z,0.30
2024-02-09T03:15:35.641Z,0.40
2024-02-09T03:18:06.671Z,0.47
2024-02-09T03:20:33.298Z,0.40
2024-02-09T03:23:02.899Z,0.40
2024-02-09T03:25:30.020Z,0.40
2024-02-09T03:27:56.838Z,0.40
2024-02-09T03:30:23.731Z,0.40
2024-02-09T03:32:52.467Z,0.40
2024-02-09T03:35:19.347Z,0.40
2024-02-09T03:37:46.641Z,0.40
2024-02-09T03:40:13.813Z,0.40
2024-02-09T03:42:41.633Z,0.40
2024-02-09T03:45:08.382Z,0.40
2024-02-09T03:47:34.993Z,0.30
2024-02-09T03:50:01.991Z,0.40
2024-02-09T03:52:29.225Z,0.40
2024-02-09T03:54:56.424Z,0.40
2024-02-09T03:57:23.653Z,0.43
2024-02-09T03:59:51.764Z,0.38
2024-02-09T04:02:18.749Z,0.40
2024-02-09T04:04:45.770Z,0.40
2024-02-09T04:07:12.598Z,0.30
2024-02-09T04:10:03.131Z,0.40
2024-02-09T04:12:26.212Z,0.40
2024-02-09T04:14:52.707Z,0.50
2024-02-09T04:17:19.270Z,0.40
2024-02-09T04:19:46.451Z,0.40
2024-02-09T04:22:13.061Z,0.40
2024-02-09T04:24:39.683Z,0.40
2024-02-09T04:27:06.889Z,0.30
2024-02-09T04:29:38.013Z,0.40
2024-02-09T04:32:05.982Z,0.40
2024-02-09T04:34:33.278Z,0.40
2024-02-09T04:37:01.389Z,0.40
2024-02-09T04:39:28.134Z,0.40
2024-02-09T04:41:54.769Z,0.40
2024-02-09T04:44:25.232Z,0.40
2024-02-09T04:46:52.151Z,0.30
2024-02-09T04:49:18.875Z,0.40
2024-02-09T04:51:47.909Z,0.40
2024-02-09T04:54:15.223Z,0.40
2024-02-09T04:56:41.858Z,0.40
2024-02-09T04:59:11.888Z,0.40
2024-02-09T05:01:39.677Z,0.40
2024-02-09T05:04:13.383Z,0.40
2024-02-09T05:06:40.345Z,0.40
2024-02-09T05:09:08.369Z,0.40
2024-02-09T05:11:37.636Z,0.40
2024-02-09T05:14:08.168Z,0.40
2024-02-09T05:16:37.652Z,0.30
2024-02-09T05:19:04.364Z,0.40
2024-02-09T05:21:31.054Z,0.40
2024-02-09T05:23:57.709Z,0.40
2024-02-09T05:26:24.271Z,0.32
2024-02-09T05:28:50.868Z,0.40
2024-02-09T05:31:18.251Z,0.40
2024-02-09T05:33:45.382Z,0.35
2024-02-09T05:36:24.993Z,0.40
2024-02-09T05:38:52.599Z,0.40
2024-02-09T05:41:19.697Z,0.40
2024-02-09T05:43:48.682Z,0.40
2024-02-09T05:46:15.687Z,0.30
2024-02-09T05:48:45.789Z,0.40
2024-02-09T05:51:13.700Z,0.40
2024-02-09T05:53:43.310Z,0.40
2024-02-09T05:56:17.021Z,0.40
2024-02-09T05:58:43.874Z,0.38
2024-02-09T06:01:10.671Z,0.40
2024-02-09T06:03:39.650Z,0.40
2024-02-09T06:06:06.729Z,0.40
2024-02-09T06:08:35.325Z,0.40
2024-02-09T06:11:01.960Z,0.40
2024-02-09T06:13:28.599Z,0.40
2024-02-09T06:15:59.368Z,0.40
2024-02-09T06:18:29.563Z,0.40
2024-02-09T06:20:58.217Z,0.40
2024-02-09T06:23:27.758Z,0.43
2024-02-09T06:25:54.386Z,0.50
2024-02-09T06:28:21.188Z,0.50
2024-02-09T06:30:48.966Z,0.40
2024-02-09T06:33:17.220Z,0.40
2024-02-09T06:35:47.437Z,0.40
2024-02-09T06:38:13.978Z,0.50
2024-02-09T06:40:41.001Z,0.40
2024-02-09T06:43:08.053Z,0.40
2024-02-09T06:45:37.687Z,0.43
2024-02-09T06:48:06.935Z,0.50
2024-02-09T06:50:36.884Z,0.50
2024-02-09T06:53:06.856Z,0.50
2024-02-09T06:55:34.099Z,0.40
2024-02-09T06:58:00.918Z,0.50
2024-02-09T07:00:27.534Z,0.50
2024-02-09T07:02:55.226Z,0.50
2024-02-09T07:05:22.288Z,0.50
2024-02-09T07:07:50.857Z,0.50
2024-02-09T07:10:18.969Z,0.57
2024-02-09T07:12:46.096Z,0.60
2024-02-09T07:15:16.068Z,0.60
2024-02-09T07:17:44.704Z,0.70
2024-02-09T07:20:13.360Z,0.60
2024-02-09T07:22:40.058Z,0.70
2024-02-09T07:25:06.852Z,0.60
2024-02-09T07:27:33.550Z,0.60
2024-02-09T07:30:00.594Z,0.70
2024-02-09T07:32:27.267Z,0.70
2024-02-09T07:34:54.028Z,0.70
2024-02-09T07:37:21.229Z,0.70
2024-02-09T07:39:48.350Z,0.80
2024-02-09T07:42:14.951Z,0.80
2024-02-09T07:44:42.200Z,0.80
2024-02-09T07:47:08.836Z,0.80
2024-02-09T07:49:35.547Z,0.80
2024-02-09T07:52:02.600Z,0.80
2024-02-09T07:54:32.542Z,0.80
2024-02-09T07:56:59.681Z,0.80
2024-02-09T07:59:26.202Z,0.80
2024-02-09T08:01:57.811Z,0.80
2024-02-09T08:04:31.481Z,0.90
2024-02-09T08:06:58.447Z,0.90
2024-02-09T08:09:25.030Z,0.90
2024-02-09T08:11:51.604Z,0.90
2024-02-09T08:14:18.150Z,0.95
2024-02-09T08:16:47.755Z,1.00
2024-02-09T08:19:14.891Z,0.95
2024-02-09T08:21:41.756Z,0.93
2024-02-09T08:24:11.092Z,0.95
2024-02-09T08:26:45.363Z,0.98
2024-02-09T08:29:19.618Z,1.00
2024-02-09T08:31:46.274Z,1.00
2024-02-09T08:34:14.429Z,1.10
2024-02-09T08:36:41.232Z,1.05
2024-02-09T08:39:07.913Z,1.00
2024-02-09T08:41:35.187Z,1.10
2024-02-09T08:44:02.959Z,1.20
2024-02-09T08:46:29.817Z,1.17
2024-02-09T08:50:39.568Z,1.25
2024-02-09T08:53:06.665Z,1.13
2024-02-09T08:55:33.412Z,1.10
2024-02-09T08:58:00.170Z,1.10
2024-02-09T09:00:27.080Z,0.98
2024-02-09T09:02:54.085Z,1.13
2024-02-09T09:05:20.893Z,1.10
2024-02-09T09:07:47.677Z,1.13
2024-02-09T09:10:14.481Z,1.10
2024-02-09T09:12:41.320Z,1.15
2024-02-09T09:15:08.321Z,1.15
2024-02-09T09:17:35.244Z,1.30
2024-02-09T09:20:02.405Z,1.25
2024-02-09T09:22:29.713Z,1.25
2024-02-09T09:24:56.580Z,1.23
2024-02-09T09:27:25.189Z,1.30
2024-02-09T09:29:54.194Z,1.30
2024-02-09T09:32:21.969Z,1.50
2024-02-09T09:34:49.903Z,1.45
2024-02-09T09:37:16.785Z,1.52
2024-02-09T09:39:43.525Z,1.60
2024-02-09T09:42:10.679Z,1.60
2024-02-09T09:44:37.515Z,1.40
2024-02-09T09:47:07.330Z,1.40
2024-02-09T09:49:40.114Z,1.48
2024-02-09T09:52:13.546Z,1.40
2024-02-09T09:57:09.750Z,1.63
2024-02-09T09:59:37.187Z,1.50
2024-02-09T10:02:04.742Z,1.45
2024-02-09T10:04:31.659Z,1.30
2024-02-09T10:06:58.601Z,1.60
2024-02-09T10:09:25.413Z,1.60
2024-02-09T10:11:53.200Z,1.40
2024-02-09T10:14:21.627Z,1.60
2024-02-09T10:16:49.600Z,1.58
2024-02-09T10:19:18.516Z,1.52
2024-02-09T10:21:56.247Z,1.60
2024-02-09T10:24:25.329Z,1.63
2024-02-09T10:26:52.297Z,1.67
2024-02-09T10:29:23.847Z,1.50
2024-02-09T10:31:53.273Z,1.40
2024-02-09T10:34:20.157Z,1.80
2024-02-09T10:36:48.309Z,1.60
2024-02-09T10:39:15.485Z,1.85
2024-02-09T10:41:47.445Z,1.67
2024-02-09T10:44:18.891Z,1.80
2024-02-09T10:46:46.089Z,2.20
2024-02-09T10:49:15.891Z,1.92
2024-02-09T10:51:43.342Z,1.90
2024-02-09T10:54:27.254Z,1.88
2024-02-09T10:56:57.222Z,1.80
2024-02-09T10:59:25.110Z,1.80
2024-02-09T11:01:52.539Z,1.50
2024-02-09T11:04:20.056Z,1.73
2024-02-09T11:06:47.938Z,2.10
2024-02-09T11:09:15.061Z,2.00
2024-02-09T11:11:41.884Z,2.17
2024-02-09T11:14:10.906Z,2.20
2024-02-09T11:16:44.918Z,1.90
2024-02-09T11:19:19.323Z,2.17
2024-02-09T11:21:47.893Z,1.90
2024-02-09T11:24:19.013Z,2.00
2024-02-09T11:26:49.973Z,2.30
2024-02-09T11:29:18.593Z,2.00
2024-02-09T11:31:51.882Z,2.30
2024-02-09T11:34:20.454Z,2.30
2024-02-09T11:36:47.332Z,1.80
2024-02-09T11:39:14.616Z,2.20
2024-02-09T11:41:41.343Z,2.20
2024-02-09T11:44:11.231Z,1.90
2024-02-09T11:46:38.467Z,1.98
2024-02-09T11:49:09.054Z,2.08
2024-02-09T11:51:35.941Z,2.15
2024-02-09T11:54:04.489Z,1.80
2024-02-09T11:56:32.665Z,2.35
2024-02-09T11:59:00.495Z,2.42
2024-02-09T12:01:36.602Z,2.30
2024-02-09T12:04:09.991Z,2.30
2024-02-09T12:09:05.799Z,2.22
2024-02-09T12:11:32.914Z,2.25
2024-02-09T12:13:59.818Z,2.28
2024-02-09T12:16:26.905Z,1.90
2024-02-09T12:18:55.254Z,1.90
2024-02-09T12:21:22.583Z,1.92
2024-02-09T12:23:54.569Z,2.08
2024-02-09T12:26:23.815Z,1.90
2024-02-09T12:28:51.879Z,2.05
2024-02-09T12:31:20.680Z,2.13
2024-02-09T12:33:49.680Z,2.03
2024-02-09T12:36:22.721Z,2.00
2024-02-09T12:38:57.550Z,1.80
2024-02-09T12:41:28.176Z,2.00
2024-02-09T12:44:03.710Z,1.73
2024-02-09T12:46:32.069Z,1.80
2024-02-09T12:48:59.277Z,1.90
2024-02-09T12:51:26.840Z,1.77
2024-02-09T12:53:57.119Z,1.90
2024-02-09T12:56:24.536Z,1.73
2024-02-09T12:58:52.090Z,1.80
2024-02-09T13:01:20.206Z,2.10
2024-02-09T13:03:51.785Z,2.10
2024-02-09T13:06:18.791Z,2.10
2024-02-09T13:08:45.658Z,2.10
2024-02-09T13:11:12.717Z,1.80
2024-02-09T13:13:41.500Z,2.00
2024-02-09T13:16:13.840Z,2.00
2024-02-09T13:18:40.967Z,1.90
2024-02-09T13:21:08.012Z,1.90
2024-02-09T13:23:36.107Z,2.05
2024-02-09T13:26:11.562Z,2.13
2024-02-09T13:28:40.983Z,1.90
2024-02-09T13:31:12.516Z,1.83
2024-02-09T13:33:39.758Z,2.00
2024-02-09T13:36:09.994Z,1.88
2024-02-09T13:38:39.629Z,1.90
2024-02-09T13:41:06.548Z,2.10
2024-02-09T13:43:34.011Z,1.77
2024-02-09T13:46:01.387Z,2.00
2024-02-09T13:48:28.536Z,2.03
2024-02-09T13:50:55.513Z,1.92
2024-02-09T13:53:22.536Z,1.88
2024-02-09T13:55:49.694Z,1.88
2024-02-09T13:58:19.809Z,1.85
2024-02-09T14:00:54.652Z,2.10
2024-02-09T14:03:23.081Z,1.70
2024-02-09T14:05:51.425Z,2.05
2024-02-09T14:08:24.399Z,2.10
2024-02-09T14:10:51.478Z,1.80
2024-02-09T14:13:18.427Z,2.10
2024-02-09T14:15:50.121Z,1.60
2024-02-09T14:18:17.141Z,1.80
2024-02-09T14:20:47.914Z,1.75
2024-02-09T14:23:14.961Z,1.80
2024-02-09T14:25:42.062Z,2.13
2024-02-09T14:28:11.974Z,1.70
2024-02-09T14:30:40.942Z,1.85
2024-02-09T14:33:12.019Z,1.85
2024-02-09T14:35:39.519Z,1.90
2024-02-09T14:38:06.756Z,1.90
2024-02-09T14:40:37.730Z,1.90
2024-02-09T14:43:05.527Z,1.77
2024-02-09T14:45:35.653Z,1.67
2024-02-09T14:48:03.023Z,1.88
2024-02-09T14:50:30.644Z,1.60
2024-02-09T14:52:58.570Z,1.60
2024-02-09T14:55:28.755Z,1.60
2024-02-09T14:58:02.292Z,1.80
2024-02-09T15:00:34.515Z,1.73
2024-02-09T15:03:03.078Z,1.60
2024-02-09T15:05:32.076Z,1.50
2024-02-09T15:08:00.438Z,1.80
2024-02-09T15:10:30.896Z,1.60
2024-02-09T15:13:00.111Z,1.70
2024-02-09T15:15:31.431Z,1.52
2024-02-09T15:18:01.247Z,1.58
2024-02-09T15:20:28.345Z,1.50
2024-02-09T15:22:56.220Z,1.50
2024-02-09T15:25:27.870Z,1.60
2024-02-09T15:27:55.814Z,1.60
2024-02-09T15:30:22.846Z,1.50
2024-02-09T15:32:50.256Z,1.40
2024-02-09T15:35:19.344Z,1.55
2024-02-09T15:37:46.493Z,1.48
2024-02-09T15:40:14.257Z,1.50
2024-02-09T15:42:41.722Z,1.40
2024-02-09T15:45:09.162Z,1.42
2024-02-09T15:47:35.891Z,1.30
2024-02-09T15:50:02.714Z,1.30
2024-02-09T15:52:30.058Z,1.27
2024-02-09T15:54:56.906Z,1.30
2024-02-09T15:57:24.535Z,1.10
2024-02-09T15:59:51.428Z,1.30
2024-02-09T16:02:18.227Z,1.10
2024-02-09T16:04:45.117Z,1.20
2024-02-09T16:07:11.875Z,1.10
2024-02-09T16:09:38.602Z,1.10
2024-02-09T16:12:09.931Z,1.15
2024-02-09T16:14:40.070Z,1.08
2024-02-09T16:17:08.195Z,1.10
2024-02-09T16:19:35.679Z,1.10
2024-02-09T16:22:02.779Z,1.05
2024-02-09T16:24:29.550Z,1.00
2024-02-09T16:26:56.217Z,1.08
2024-02-09T16:29:22.991Z,0.98
2024-02-09T16:31:50.273Z,1.00
2024-02-09T16:34:17.406Z,1.00
2024-02-09T16:36:44.417Z,1.10
2024-02-09T16:39:14.432Z,1.00
2024-02-09T16:41:41.799Z,0.90
2024-02-09T16:44:09.475Z,1.00
2024-02-09T16:46:36.757Z,1.00
2024-02-09T16:49:05.617Z,0.90
2024-02-09T16:51:32.440Z,1.00
2024-02-09T16:54:00.668Z,1.00
2024-02-09T16:56:27.658Z,1.00
2024-02-09T16:58:54.515Z,1.00
2024-02-09T17:01:22.779Z,1.00
2024-02-09T17:03:49.965Z,0.90
2024-02-09T17:06:16.897Z,0.90
2024-02-09T17:08:43.741Z,0.90
2024-02-09T17:11:11.673Z,0.90
2024-02-09T17:13:38.510Z,0.90
2024-02-09T17:16:05.816Z,0.90
2024-02-09T17:18:32.886Z,0.80
2024-02-09T17:21:00.000Z,0.90
2024-02-09T17:23:26.658Z,0.90
2024-02-09T17:25:53.590Z,0.90
2024-02-09T17:28:20.495Z,0.88
2024-02-09T17:30:48.579Z,0.80
2024-02-09T17:33:16.289Z,0.90
2024-02-09T17:35:43.288Z,0.88
2024-02-09T17:38:10.540Z,0.80
2024-02-09T17:40:37.787Z,0.80
2024-02-09T17:43:04.864Z,0.90
2024-02-09T17:45:34.053Z,0.88
2024-02-09T17:48:03.260Z,0.90
2024-02-09T17:50:30.749Z,0.80
2024-02-09T17:52:57.591Z,0.90
2024-02-09T17:55:27.631Z,0.80
2024-02-09T17:57:55.231Z,0.80
2024-02-09T18:00:31.136Z,0.90
2024-02-09T18:02:59.559Z,0.90
2024-02-09T18:05:27.590Z,0.80
2024-02-09T18:07:55.237Z,0.73
2024-02-09T18:10:22.080Z,0.80
2024-02-09T18:12:49.738Z,0.90
2024-02-09T18:15:16.718Z,0.80
2024-02-09T18:17:43.522Z,0.90
2024-02-09T18:20:11.499Z,0.80
2024-02-09T18:22:38.389Z,0.80
2024-02-09T18:25:06.023Z,0.90
2024-02-09T18:27:33.219Z,0.80
2024-02-09T18:30:00.778Z,0.80
2024-02-09T18:32:29.109Z,0.80
2024-02-09T18:34:56.640Z,0.80
2024-02-09T18:37:23.681Z,0.80
2024-02-09T18:39:52.041Z,0.80
2024-02-09T18:42:19.000Z,0.80
2024-02-09T18:44:46.008Z,0.88
2024-02-09T18:47:14.359Z,0.90
2024-02-09T18:49:41.656Z,0.80
2024-02-09T18:52:10.087Z,0.80
2024-02-09T18:54:43.906Z,0.80
2024-02-09T18:57:10.793Z,0.80
2024-02-09T18:59:37.715Z,0.80
2024-02-09T19:02:07.440Z,0.80
2024-02-09T19:04:35.616Z,0.80
2024-02-09T19:07:02.488Z,0.70
2024-02-09T19:09:31.316Z,0.80
2024-02-09T19:11:58.896Z,0.80
2024-02-09T19:14:26.282Z,0.80
2024-02-09T19:16:53.671Z,0.70
2024-02-09T19:19:20.809Z,0.80
2024-02-09T19:21:51.014Z,0.80
2024-02-09T19:24:19.074Z,0.75
2024-02-09T19:26:46.164Z,0.70
2024-02-09T19:29:13.190Z,0.70
2024-02-09T19:31:40.222Z,0.70
2024-02-09T19:34:09.655Z,0.70
2024-02-09T19:36:36.865Z,0.80
2024-02-09T19:39:07.067Z,0.73
2024-02-09T19:41:35.153Z,0.70
2024-02-09T19:44:03.090Z,0.80
2024-02-09T19:46:32.500Z,0.70
2024-02-09T19:49:13.106Z,0.77
2024-02-09T19:51:43.793Z,0.70
2024-02-09T19:54:11.905Z,0.70
2024-02-09T19:56:38.830Z,0.70
2024-02-09T19:59:07.828Z,0.70
2024-02-09T20:01:34.818Z,0.80
2024-02-09T20:04:11.336Z,0.70
2024-02-09T20:06:38.272Z,0.73
2024-02-09T20:09:05.720Z,0.70
2024-02-09T20:11:32.938Z,0.80
2024-02-09T20:14:01.703Z,0.70
2024-02-09T20:16:31.835Z,0.70
2024-02-09T20:19:02.175Z,0.73
2024-02-09T20:21:31.030Z,0.80
2024-02-09T20:24:02.916Z,0.80
2024-02-09T20:26:30.230Z,0.80
2024-02-09T20:29:00.779Z,0.80
2024-02-09T20:31:28.475Z,0.70
2024-02-09T20:33:58.796Z,0.70
2024-02-09T20:36:28.278Z,0.80
2024-02-09T20:38:57.088Z,0.80
2024-02-09T20:41:24.121Z,0.70
2024-02-09T20:43:51.706Z,0.70
2024-02-09T20:46:20.044Z,0.73
2024-02-09T20:48:47.094Z,0.70
2024-02-09T20:51:33.941Z,0.77
2024-02-09T20:54:03.302Z,0.70
2024-02-09T20:56:30.181Z,0.70
2024-02-09T20:58:59.300Z,0.70
2024-02-09T21:01:27.766Z,0.70
2024-02-09T21:03:56.783Z,0.70
2024-02-09T21:06:26.440Z,0.80
2024-02-09T21:08:53.439Z,0.70
2024-02-09T21:11:21.236Z,0.70
2024-02-09T21:13:48.229Z,0.70
2024-02-09T21:16:15.244Z,0.70
2024-02-09T21:18:42.276Z,0.60
2024-02-09T21:21:09.207Z,0.60
2024-02-09T21:23:36.184Z,0.70
2024-02-09T21:26:04.787Z,0.63
2024-02-09T21:28:32.727Z,0.80
2024-02-09T21:30:59.564Z,0.70
2024-02-09T21:33:26.715Z,0.75
2024-02-09T21:35:57.601Z,0.80
2024-02-09T21:38:26.452Z,0.70
2024-02-09T21:40:53.553Z,0.70
2024-02-09T21:43:25.797Z,0.68
2024-02-09T21:45:53.760Z,0.70
2024-02-09T21:48:21.805Z,0.70
2024-02-09T21:50:48.882Z,0.70
2024-02-09T21:53:17.347Z,0.75
2024-02-09T21:55:50.911Z,0.70
2024-02-09T22:00:45.270Z,0.70
2024-02-09T22:03:12.518Z,0.65
2024-02-09T22:05:39.671Z,0.70
2024-02-09T22:08:06.761Z,0.70
2024-02-09T22:10:33.629Z,0.70
2024-02-09T22:13:01.716Z,0.70
2024-02-09T22:15:34.295Z,0.70
2024-02-09T22:18:02.307Z,0.70
2024-02-09T22:20:29.306Z,0.70
2024-02-09T22:22:56.189Z,0.70
2024-02-09T22:25:23.389Z,0.60
2024-02-09T22:27:54.013Z,0.50
2024-02-09T22:30:21.052Z,0.60
2024-02-09T22:32:47.964Z,0.60
2024-02-09T22:35:15.887Z,0.60
2024-02-09T22:37:43.061Z,0.70
2024-02-09T22:40:18.737Z,0.60
2024-02-09T22:42:47.380Z,0.60
2024-02-09T22:45:15.896Z,0.70
2024-02-09T22:47:43.190Z,0.60
2024-02-09T22:50:12.853Z,0.70
2024-02-09T22:52:40.405Z,0.60
2024-02-09T22:55:08.365Z,0.60
2024-02-09T22:57:35.425Z,0.60
2024-02-09T23:00:09.326Z,0.60
2024-02-09T23:02:36.041Z,0.70
2024-02-09T23:05:02.974Z,0.60
2024-02-09T23:07:33.322Z,0.60
2024-02-09T23:10:01.863Z,0.60
2024-02-09T23:12:28.602Z,0.60
2024-02-09T23:14:57.699Z,0.60
2024-02-09T23:17:26.703Z,0.60
2024-02-09T23:19:54.403Z,0.60
2024-02-09T23:22:21.334Z,0.60
2024-02-09T23:24:51.095Z,0.60
2024-02-09T23:27:17.879Z,0.60
2024-02-09T23:29:44.554Z,0.60
2024-02-09T23:32:12.068Z,0.60
2024-02-09T23:34:40.748Z,0.60
2024-02-09T23:37:07.588Z,0.60
2024-02-09T23:39:34.309Z,0.60
2024-02-09T23:42:01.171Z,0.52
2024-02-09T23:44:29.668Z,0.60
2024-02-09T23:46:57.274Z,0.50
2024-02-09T23:49:24.299Z,0.60
2024-02-09T23:51:54.299Z,0.50
2024-02-09T23:54:21.033Z,0.60
2024-02-09T23:56:49.311Z,0.50
2024-02-09T23:59:17.207Z,0.50
